Time;durP1;ratioP1;P1;durP2;ratioP2;P2;SDS_P1;SDS_P2;PMS_P1;PMS_P2;Temp;Humidity;BMP_temperature;BMP_pressure;BME280_temperature;BME280_humidity;BME280_pressure;Samples;Min_cycle;Max_cycle;Signal;HPM_P1;HPM_P2
2021/12/12 00:00:57;;;;;;;23.20;10.95;;;;;;;3.41;80.88;100474.16;4900216;28;20454;-62
2021/12/12 00:03:39;;;;;;;21.08;10.73;;;;;;;3.40;80.59;100474.97;4916699;29;20551;-62
2021/12/12 00:06:13;;;;;;;28.85;10.90;;;;;;;3.41;80.93;100471.59;4900043;28;20051;-62
2021/12/12 00:08:41;;;;;;;24.07;11.23;;;;;;;3.42;80.67;100471.69;4916868;29;20450;-62
2021/12/12 00:11:11;;;;;;;25.48;10.50;;;;;;;3.41;80.43;100462.25;4916713;29;20036;-62
2021/12/12 00:13:43;;;;;;;19.38;10.77;;;;;;;3.42;80.32;100473.38;4899809;28;20044;-62
2021/12/12 00:16:12;;;;;;;25.15;11.65;;;;;;;3.43;80.72;100477.69;4899969;28;20162;-63
2021/12/12 00:18:41;;;;;;;26.40;11.57;;;;;;;3.42;80.38;100461.44;4915525;29;20047;-63
2021/12/12 00:21:08;;;;;;;27.05;12.55;;;;;;;3.43;80.60;100470.00;4916572;29;20040;-63
2021/12/12 00:23:36;;;;;;;28.50;12.82;;;;;;;3.44;81.10;100469.19;4899670;28;20050;-64
2021/12/12 00:26:05;;;;;;;24.33;11.00;;;;;;;3.44;80.89;100464.06;4917310;29;20126;-63
2021/12/12 00:28:31;;;;;;;21.50;11.73;;;;;;;3.45;80.68;100465.84;4899632;28;20040;-63
2021/12/12 00:31:08;;;;;;;22.45;11.73;;;;;;;3.44;80.35;100461.50;4899539;28;20480;-63
2021/12/12 00:33:35;;;;;;;21.13;10.23;;;;;;;3.44;80.97;100467.50;4916551;29;20036;-63
2021/12/12 00:36:04;;;;;;;24.58;12.77;;;;;;;3.44;80.82;100469.19;4916517;29;20032;-63
2021/12/12 00:38:32;;;;;;;22.00;11.98;;;;;;;3.45;80.30;100465.84;4915271;29;20087;-63
2021/12/12 00:41:07;;;;;;;18.52;11.27;;;;;;;3.43;80.43;100459.75;4916182;29;20044;-63
2021/12/12 00:43:42;;;;;;;27.02;11.95;;;;;;;3.44;80.44;100458.94;4915641;29;20042;-63
2021/12/12 00:46:10;;;;;;;21.27;11.20;;;;;;;3.43;80.20;100470.88;4916051;29;20472;-63
2021/12/12 00:48:38;;;;;;;23.83;10.98;;;;;;;3.45;80.77;100470.97;4916288;29;20063;-64
2021/12/12 00:51:09;;;;;;;24.52;12.57;;;;;;;3.44;80.80;100458.94;4915029;29;20040;-63
2021/12/12 00:53:35;;;;;;;21.33;10.40;;;;;;;3.46;80.64;100467.59;4916051;29;20048;-63
2021/12/12 00:56:01;;;;;;;23.27;10.32;;;;;;;3.45;80.68;100453.03;4914822;29;20040;-63
2021/12/12 00:58:30;;;;;;;29.05;11.50;;;;;;;3.47;80.92;100454.00;4915760;29;20565;-63
2021/12/12 01:01:04;;;;;;;20.02;10.85;;;;;;;3.47;80.79;100447.16;4916122;29;20032;-63
2021/12/12 01:03:40;;;;;;;19.95;11.20;;;;;;;3.47;80.97;100448.88;4914570;28;20510;-63
2021/12/12 01:06:09;;;;;;;25.25;11.10;;;;;;;3.47;80.29;100439.47;4899676;28;20032;-63
2021/12/12 01:08:36;;;;;;;18.38;10.95;;;;;;;3.48;80.62;100436.13;4916260;29;20047;-63
2021/12/12 01:11:16;;;;;;;27.70;11.57;;;;;;;3.47;80.71;100438.63;4899046;28;20044;-63
2021/12/12 01:13:42;;;;;;;26.98;11.23;;;;;;;3.47;81.12;100438.63;4899119;28;20067;-64
2021/12/12 01:16:49;;;;;;;21.05;11.30;;;;;;;3.48;80.72;100436.13;4898563;28;20036;-63
2021/12/12 01:19:28;;;;;;;16.75;9.10;;;;;;;3.49;80.63;100435.31;4888523;29;20063;-63
2021/12/12 01:21:59;;;;;;;20.85;10.10;;;;;;;3.48;80.67;100438.69;4914618;29;20124;-62
2021/12/12 01:24:32;;;;;;;24.92;9.75;;;;;;;3.50;80.84;100441.34;4898828;28;20044;-63
2021/12/12 01:27:02;;;;;;;34.03;13.48;;;;;;;3.52;80.64;100436.28;4898629;28;20040;-63
2021/12/12 01:29:28;;;;;;;26.15;11.35;;;;;;;3.52;81.14;100446.53;4914500;29;20036;-62
2021/12/12 01:31:59;;;;;;;19.20;9.20;;;;;;;3.52;80.47;100443.97;4915612;29;20043;-63
2021/12/12 01:34:31;;;;;;;21.80;10.05;;;;;;;3.52;80.64;100449.09;4915994;29;20082;-63
2021/12/12 01:37:36;;;;;;;26.95;9.95;;;;;;;3.53;80.67;100444.03;4914208;29;20036;-63
2021/12/12 01:40:25;;;;;;;21.45;9.98;;;;;;;3.50;80.53;100434.50;4914541;29;20519;-62
2021/12/12 01:43:01;;;;;;;14.65;9.20;;;;;;;3.53;80.61;100438.03;4914351;29;20553;-63
2021/12/12 01:45:33;;;;;;;25.08;9.07;;;;;;;3.52;80.72;100426.88;4898471;28;20044;-63
2021/12/12 01:48:05;;;;;;;20.52;9.32;;;;;;;3.52;80.66;100428.59;4915694;29;20484;-63
2021/12/12 01:50:37;;;;;;;16.52;8.63;;;;;;;3.53;80.66;100433.78;4915049;29;20040;-64
2021/12/12 01:53:06;;;;;;;17.40;9.00;;;;;;;3.54;80.28;100430.41;4915243;29;20028;-63
2021/12/12 01:55:37;;;;;;;18.13;8.85;;;;;;;3.54;80.89;100432.97;4913973;29;20071;-63
2021/12/12 01:58:08;;;;;;;17.40;9.23;;;;;;;3.55;80.70;100439.88;4898862;29;20044;-63
2021/12/12 02:00:39;;;;;;;21.00;8.45;;;;;;;3.54;81.10;100432.97;4915258;29;20051;-62
2021/12/12 02:03:08;;;;;;;20.08;9.30;;;;;;;3.57;80.65;100432.28;4898163;28;20048;-62
2021/12/12 02:05:37;;;;;;;19.33;9.25;;;;;;;3.56;80.77;100431.38;4913892;28;20070;-62
2021/12/12 02:08:09;;;;;;;21.67;9.85;;;;;;;3.57;80.82;100424.59;4914212;29;20127;-63
2021/12/12 02:10:41;;;;;;;20.05;7.85;;;;;;;3.60;80.69;100432.41;4897927;28;20123;-63
2021/12/12 02:13:10;;;;;;;15.45;9.27;;;;;;;3.60;80.97;100433.31;4898509;28;20070;-63
2021/12/12 02:15:39;;;;;;;16.23;9.07;;;;;;;3.61;81.09;100426.47;4898176;28;20040;-63
2021/12/12 02:18:10;;;;;;;21.00;8.80;;;;;;;3.62;81.16;100424.00;4897954;28;20043;-63
2021/12/12 02:20:47;;;;;;;22.55;8.75;;;;;;;3.62;80.51;100431.69;4898063;28;20448;-64
2021/12/12 02:37:09;;;;;;;20.92;7.50;;;;;;;3.63;80.94;100423.22;4914727;29;20040;-62
2021/12/12 02:39:41;;;;;;;11.98;6.82;;;;;;;3.65;81.14;100421.59;4913519;29;20039;-63
2021/12/12 02:42:13;;;;;;;16.85;7.88;;;;;;;3.65;80.79;100411.34;4914666;29;20040;-62
2021/12/12 02:44:41;;;;;;;16.40;7.95;;;;;;;3.65;80.62;100408.78;4898247;29;20093;-63
2021/12/12 02:47:13;;;;;;;18.67;7.30;;;;;;;3.68;80.87;100412.28;4897844;29;20036;-63
2021/12/12 02:50:27;;;;;;;15.00;6.95;;;;;;;3.66;81.17;100415.66;4914563;29;20454;-63
2021/12/12 02:52:34;;;;;;;23.95;8.50;;;;;;;3.69;80.75;100414.94;4927307;28;20048;-63
2021/12/12 02:55:08;;;;;;;16.40;7.07;;;;;;;3.70;81.08;100418.38;4897483;28;20038;-63
2021/12/12 02:57:38;;;;;;;15.50;7.88;;;;;;;3.68;81.29;100404.59;4913412;29;20082;-63
2021/12/12 03:00:07;;;;;;;18.17;7.25;;;;;;;3.68;80.64;100410.63;4913338;29;20037;-62
2021/12/12 03:02:44;;;;;;;17.00;7.43;;;;;;;3.68;80.65;100409.72;4912851;29;20080;-63
2021/12/12 03:05:13;;;;;;;17.23;6.95;;;;;;;3.66;80.96;100400.25;4918287;29;20041;-63
2021/12/12 03:07:43;;;;;;;14.20;7.68;;;;;;;3.68;81.07;100414.84;4917840;29;20074;-62
2021/12/12 03:10:20;;;;;;;21.30;8.52;;;;;;;3.68;80.60;100404.59;4916557;29;20048;-63
2021/12/12 03:12:46;;;;;;;17.38;8.02;;;;;;;3.69;80.76;100401.22;4917709;29;20043;-62
2021/12/12 03:15:34;;;;;;;16.98;7.35;;;;;;;3.69;81.11;100403.78;4917782;29;20040;-63
2021/12/12 03:18:02;;;;;;;11.50;6.75;;;;;;;3.70;81.02;100405.56;4916457;29;20503;-63
2021/12/12 03:20:38;;;;;;;17.95;8.30;;;;;;;3.70;80.95;100413.25;4916421;29;20044;-62
2021/12/12 03:23:07;;;;;;;16.23;7.68;;;;;;;3.71;80.71;100415.91;4900869;28;20040;-62
2021/12/12 03:25:36;;;;;;;17.63;6.82;;;;;;;3.71;81.35;100412.44;4916231;28;20043;-63
2021/12/12 03:28:06;;;;;;;16.38;6.25;;;;;;;3.70;80.83;100418.38;4900544;28;20036;-63
2021/12/12 03:30:32;;;;;;;14.93;7.13;;;;;;;3.72;81.32;100414.19;4917404;29;20076;-62
2021/12/12 03:33:00;;;;;;;14.77;7.55;;;;;;;3.71;81.01;100413.34;4900473;28;20423;-63
2021/12/12 03:35:29;;;;;;;16.55;6.78;;;;;;;3.72;81.29;100414.19;4900478;28;20029;-63
2021/12/12 03:38:02;;;;;;;14.18;7.20;;;;;;;3.73;81.39;100418.53;4916225;29;20101;-63
2021/12/12 03:40:35;;;;;;;15.15;6.63;;;;;;;3.73;80.82;100422.00;4917777;29;20040;-62
2021/12/12 03:43:07;;;;;;;15.90;6.57;;;;;;;3.72;80.62;100417.66;4917617;29;20040;-63
2021/12/12 03:45:33;;;;;;;22.92;9.38;;;;;;;3.72;80.91;100415.09;4900330;28;20089;-63
2021/12/12 03:48:10;;;;;;;13.30;7.20;;;;;;;3.73;80.88;100419.44;4917216;29;20037;-63
2021/12/12 03:50:38;;;;;;;19.40;7.30;;;;;;;3.74;81.53;100412.59;4917402;29;20040;-62
2021/12/12 03:53:05;;;;;;;15.52;7.80;;;;;;;3.73;81.06;100404.03;4900384;28;20531;-63
2021/12/12 03:55:32;;;;;;;18.08;6.43;;;;;;;3.75;80.82;100401.53;4900236;28;20040;-63
2021/12/12 03:57:58;;;;;;;14.80;6.85;;;;;;;3.75;81.66;100404.09;4916840;29;20504;-62
2021/12/12 04:00:34;;;;;;;19.10;7.50;;;;;;;3.76;81.35;100401.59;4917079;29;20369;-62
2021/12/12 04:03:05;;;;;;;21.08;6.93;;;;;;;3.76;80.97;100404.16;4917080;29;20060;-63
2021/12/12 04:05:30;;;;;;;10.75;6.43;;;;;;;3.76;81.38;100399.03;4917146;29;20040;-63
2021/12/12 04:07:59;;;;;;;13.43;6.90;;;;;;;3.78;81.50;100391.44;4915702;29;20419;-63
2021/12/12 04:10:25;;;;;;;19.25;6.00;;;;;;;3.78;81.05;100392.31;4899778;28;20525;-63
2021/12/12 04:12:52;;;;;;;13.88;6.88;;;;;;;3.78;81.24;100387.19;4916769;29;20064;-63
2021/12/12 04:15:18;;;;;;;16.83;6.38;;;;;;;3.79;81.04;100385.50;4899332;28;20058;-63
2021/12/12 04:17:47;;;;;;;16.38;7.75;;;;;;;3.80;81.57;100382.16;4916690;29;20041;-63
2021/12/12 04:20:20;;;;;;;9.80;6.68;;;;;;;3.80;81.02;100382.16;4915729;28;20098;-63
2021/12/12 04:22:51;;;;;;;13.37;6.37;;;;;;;3.80;80.95;100385.56;4915464;29;20040;-63
2021/12/12 04:25:20;;;;;;;10.50;6.43;;;;;;;3.81;81.66;100389.91;4916794;29;20044;-62
2021/12/12 04:27:45;;;;;;;14.25;5.72;;;;;;;3.81;80.97;100399.28;4900034;29;20443;-63
2021/12/12 04:30:14;;;;;;;19.55;7.05;;;;;;;3.81;81.29;100394.16;4915374;29;20120;-62
2021/12/12 04:32:43;;;;;;;8.57;5.50;;;;;;;3.83;80.96;100397.66;4899569;28;20044;-63
2021/12/12 04:35:12;;;;;;;13.02;5.95;;;;;;;3.80;81.53;100398.41;4916395;29;20032;-63
2021/12/12 04:37:42;;;;;;;11.32;6.63;;;;;;;3.83;81.31;100400.22;4915159;29;20395;-62
2021/12/12 04:40:12;;;;;;;11.65;6.55;;;;;;;3.84;81.15;100401.13;4916323;29;20039;-63
2021/12/12 04:42:40;;;;;;;15.65;6.97;;;;;;;3.84;81.09;100389.16;4899558;28;20044;-63
2021/12/12 04:45:30;;;;;;;12.13;6.43;;;;;;;3.85;81.81;100390.91;4915105;29;20423;-63
2021/12/12 04:51:09;;;;;;;10.68;5.93;;;;;;;3.85;81.36;100382.38;4916457;29;20090;-63
2021/12/12 04:53:47;;;;;;;8.20;5.35;;;;;;;3.86;81.01;100379.84;4916451;29;20047;-63
2021/12/12 04:56:39;;;;;;;13.55;4.85;;;;;;;3.87;81.27;100378.19;4916494;29;20063;-63
2021/12/12 04:59:15;;;;;;;9.90;5.40;;;;;;;3.88;81.37;100385.09;4898386;29;20138;-62
2021/12/12 05:01:44;;;;;;;10.05;5.03;;;;;;;3.87;82.02;100394.44;4899013;28;20041;-63
2021/12/12 05:04:18;;;;;;;10.05;5.20;;;;;;;3.87;82.11;100399.56;4898947;28;20086;-63
2021/12/12 05:06:49;;;;;;;8.90;5.25;;;;;;;3.90;81.47;100391.13;4899322;28;20123;-63
2021/12/12 05:09:26;;;;;;;10.00;5.05;;;;;;;3.89;81.61;100394.53;4916225;29;20044;-63
2021/12/12 05:11:51;;;;;;;10.10;5.15;;;;;;;3.91;81.53;100388.66;4914658;28;20036;-63
2021/12/12 05:14:23;;;;;;;6.97;4.78;;;;;;;3.94;81.28;100400.75;4915784;29;20067;-63
2021/12/12 05:17:04;;;;;;;8.73;4.97;;;;;;;3.92;81.27;100395.56;4915990;29;20037;-63
2021/12/12 05:19:30;;;;;;;5.55;4.57;;;;;;;3.93;81.87;100397.31;4899013;28;20055;-62
2021/12/12 05:22:09;;;;;;;8.90;4.97;;;;;;;3.94;81.27;100404.22;4915860;29;20044;-62
2021/12/12 05:24:38;;;;;;;9.93;4.35;;;;;;;3.94;81.68;100409.34;4915766;29;20050;-63
2021/12/12 05:27:13;;;;;;;7.95;4.60;;;;;;;3.93;81.92;100407.56;4914643;29;20043;-63
2021/12/12 05:29:54;;;;;;;7.70;4.47;;;;;;;3.95;81.57;100402.50;4899160;28;20047;-63
2021/12/12 05:32:21;;;;;;;8.70;4.70;;;;;;;3.95;81.85;100413.66;4916128;29;20036;-63
2021/12/12 05:34:50;;;;;;;9.50;4.53;;;;;;;3.95;81.47;100408.53;4915519;29;20442;-63
2021/12/12 05:37:20;;;;;;;6.85;4.28;;;;;;;3.97;81.38;100409.47;4898559;28;20033;-63
2021/12/12 05:39:47;;;;;;;7.45;4.80;;;;;;;3.97;81.80;100412.03;4914853;29;20059;-63
2021/12/12 05:42:15;;;;;;;7.38;4.22;;;;;;;3.97;81.87;100411.16;4914328;29;20131;-64
2021/12/12 05:44:41;;;;;;;10.77;4.78;;;;;;;3.99;81.76;100413.78;4914258;29;20047;-63
2021/12/12 05:47:10;;;;;;;7.55;4.15;;;;;;;4.00;81.73;100407.84;4914285;29;20040;-62
2021/12/12 05:49:42;;;;;;;6.95;5.40;;;;;;;3.97;81.73;100422.28;4898445;28;20488;-62
2021/12/12 05:52:14;;;;;;;9.25;4.88;;;;;;;3.98;81.59;100412.91;4914396;29;20040;-63
2021/12/12 05:54:46;;;;;;;7.63;4.63;;;;;;;4.00;81.99;100406.19;4898752;28;20399;-63
2021/12/12 05:57:17;;;;;;;7.28;4.53;;;;;;;4.03;81.32;100410.56;4914065;29;20032;-63
2021/12/12 05:59:42;;;;;;;7.15;4.03;;;;;;;4.00;81.97;100411.31;4915168;29;20531;-62
2021/12/12 06:02:12;;;;;;;7.95;4.70;;;;;;;4.01;81.99;100427.56;4913714;29;20048;-63
2021/12/12 06:04:43;;;;;;;10.55;4.85;;;;;;;4.02;82.35;100430.22;4914850;29;20594;-62
2021/12/12 06:07:15;;;;;;;6.50;4.90;;;;;;;4.04;81.76;100436.31;4898420;28;20131;-63
2021/12/12 06:09:41;;;;;;;8.40;4.95;;;;;;;4.06;81.93;100436.38;4915126;29;20523;-62
2021/12/12 06:12:07;;;;;;;6.25;4.47;;;;;;;4.05;81.76;100429.50;4915038;29;20071;-63
2021/12/12 06:14:36;;;;;;;8.25;4.07;;;;;;;4.07;81.99;100436.44;4898250;28;20032;-63
2021/12/12 06:17:07;;;;;;;8.75;4.43;;;;;;;4.06;82.42;100439.81;4897935;28;20411;-62
2021/12/12 06:19:36;;;;;;;7.95;4.53;;;;;;;4.06;82.02;100437.25;4915454;29;20099;-63
2021/12/12 06:22:06;;;;;;;5.70;3.83;;;;;;;4.05;81.76;100452.56;4898011;28;20056;-63
2021/12/12 06:24:33;;;;;;;4.97;4.05;;;;;;;4.06;81.84;100438.94;4913612;29;20036;-62
2021/12/12 06:27:22;;;;;;;5.88;3.60;;;;;;;4.06;81.53;100447.50;4914867;29;20078;-62
2021/12/12 06:29:52;;;;;;;9.45;4.97;;;;;;;4.07;81.87;100448.41;4915044;29;20047;-63
2021/12/12 06:32:23;;;;;;;5.68;3.92;;;;;;;4.08;82.35;100448.47;4898542;28;20040;-62
2021/12/12 06:34:51;;;;;;;6.03;3.55;;;;;;;4.09;82.33;100450.22;4897751;28;20037;-62
2021/12/12 06:37:18;;;;;;;5.00;3.47;;;;;;;4.07;82.14;100443.28;4914353;29;20048;-63
2021/12/12 06:39:44;;;;;;;3.70;3.05;;;;;;;4.08;82.57;100456.16;4914702;29;20059;-63
2021/12/12 06:42:12;;;;;;;4.47;3.70;;;;;;;4.09;82.37;100452.78;4897685;28;20506;-62
2021/12/12 06:44:40;;;;;;;5.30;4.35;;;;;;;4.11;81.89;100451.19;4898129;28;20033;-61
2021/12/12 06:47:10;;;;;;;6.97;3.88;;;;;;;4.13;81.88;100456.38;4913734;29;20074;-62
2021/12/12 06:49:39;;;;;;;5.95;3.67;;;;;;;4.14;81.57;100465.84;4913813;29;20040;-62
2021/12/12 06:52:08;;;;;;;3.97;3.30;;;;;;;4.14;81.61;100462.41;4897644;28;20503;-63
2021/12/12 06:54:34;;;;;;;7.38;4.13;;;;;;;4.13;82.00;100468.34;4897563;28;20037;-62
2021/12/12 06:57:09;;;;;;;5.30;3.83;;;;;;;4.15;82.09;100464.16;4913560;29;20143;-63
2021/12/12 06:59:37;;;;;;;8.52;4.00;;;;;;;4.15;82.22;100469.31;4914865;29;20539;-63
2021/12/12 07:02:06;;;;;;;4.57;3.38;;;;;;;4.13;81.76;100469.19;4913152;29;20052;-62
2021/12/12 07:04:36;;;;;;;7.35;3.63;;;;;;;4.13;81.91;100461.50;4914345;29;20036;-63
2021/12/12 07:07:08;;;;;;;3.92;3.13;;;;;;;4.13;82.28;100473.47;4913513;29;20491;-64
2021/12/12 07:09:38;;;;;;;8.90;4.07;;;;;;;4.15;82.24;100479.56;4914149;29;20044;-64
2021/12/12 07:12:12;;;;;;;5.00;3.42;;;;;;;4.16;82.29;100471.94;4914534;29;20484;-64
2021/12/12 07:14:39;;;;;;;5.65;3.72;;;;;;;4.15;82.25;100483.00;4914570;29;20036;-63
2021/12/12 07:17:09;;;;;;;4.70;3.35;;;;;;;4.17;82.27;100481.38;4914162;29;20040;-64
2021/12/12 07:19:41;;;;;;;3.75;3.40;;;;;;;4.19;82.02;100484.03;4897390;28;20062;-64
2021/12/12 07:22:07;;;;;;;4.25;3.63;;;;;;;4.18;81.81;100479.72;4897830;28;20056;-63
2021/12/12 07:24:37;;;;;;;4.38;3.67;;;;;;;4.17;82.05;100478.81;4914510;29;20439;-64
2021/12/12 07:27:09;;;;;;;7.45;3.65;;;;;;;4.18;81.88;100477.16;4912924;28;20036;-63
2021/12/12 07:29:37;;;;;;;5.50;2.67;;;;;;;4.19;82.13;100474.66;4914437;29;20036;-64
2021/12/12 07:32:03;;;;;;;4.82;3.20;;;;;;;4.19;82.43;100476.34;4912872;29;20044;-64
2021/12/12 07:34:34;;;;;;;4.20;3.05;;;;;;;4.18;82.05;100487.41;4897015;28;20040;-63
2021/12/12 07:37:02;;;;;;;6.75;3.17;;;;;;;4.19;83.06;100486.59;4913074;29;20185;-63
2021/12/12 07:39:35;;;;;;;4.70;3.22;;;;;;;4.20;82.26;100496.06;4913977;29;20127;-63
2021/12/12 07:42:03;;;;;;;4.28;3.00;;;;;;;4.21;82.05;100505.50;4914190;29;20116;-63
2021/12/12 07:44:32;;;;;;;4.32;3.63;;;;;;;4.22;82.00;100505.59;4897350;28;20040;-63
2021/12/12 07:47:00;;;;;;;6.43;3.13;;;;;;;4.23;82.17;100514.16;4912681;29;20036;-63
2021/12/12 07:49:30;;;;;;;6.25;3.50;;;;;;;4.23;82.33;100507.34;4913508;29;20033;-62
2021/12/12 07:51:57;;;;;;;7.78;3.35;;;;;;;4.23;82.03;100520.19;4900214;28;20036;-63
2021/12/12 07:54:22;;;;;;;4.07;2.60;;;;;;;4.24;82.01;100519.38;4917071;29;20036;-62
2021/12/12 07:56:48;;;;;;;8.32;3.50;;;;;;;4.23;82.18;100512.50;4915920;29;20032;-63
2021/12/12 07:59:19;;;;;;;4.95;3.85;;;;;;;4.23;82.27;100512.50;4900134;29;20131;-63
2021/12/12 08:01:49;;;;;;;4.63;3.03;;;;;;;4.23;82.30;100517.63;4916716;29;20032;-64
2021/12/12 08:04:16;;;;;;;4.53;3.28;;;;;;;4.23;82.27;100517.63;4916057;29;20036;-64
2021/12/12 08:06:44;;;;;;;4.03;3.10;;;;;;;4.26;81.98;100529.72;4916555;29;20044;-64
2021/12/12 08:09:11;;;;;;;3.42;3.10;;;;;;;4.26;82.76;100533.19;4915747;29;20040;-63
2021/12/12 08:11:42;;;;;;;3.97;3.08;;;;;;;4.25;82.46;100527.94;4916782;29;20487;-63
2021/12/12 08:14:14;;;;;;;3.80;3.33;;;;;;;4.28;81.97;100534.94;4916767;29;20043;-63
2021/12/12 08:16:40;;;;;;;3.08;2.65;;;;;;;4.29;82.59;100531.53;4915848;29;20036;-63
2021/12/12 08:19:09;;;;;;;6.65;3.13;;;;;;;4.30;82.15;100529.06;4915493;29;20047;-63
2021/12/12 08:21:35;;;;;;;5.95;2.85;;;;;;;4.32;82.11;100537.72;4915446;29;20484;-63
2021/12/12 08:24:06;;;;;;;6.13;3.40;;;;;;;4.33;82.14;100536.91;4899756;28;20036;-63
2021/12/12 08:26:37;;;;;;;3.75;3.30;;;;;;;4.33;82.79;100538.59;4899824;28;20040;-63
2021/12/12 08:29:12;;;;;;;5.00;3.63;;;;;;;4.33;81.93;100536.91;4916222;29;20040;-63
2021/12/12 08:31:41;;;;;;;8.90;3.78;;;;;;;4.36;82.15;100537.03;4915520;29;20048;-63
2021/12/12 08:34:09;;;;;;;4.78;3.38;;;;;;;4.36;82.42;100547.31;4916763;29;20116;-63
2021/12/12 08:36:37;;;;;;;5.68;3.35;;;;;;;4.37;82.35;100543.06;4915332;29;20028;-64
2021/12/12 08:39:05;;;;;;;4.10;3.50;;;;;;;4.36;82.24;100537.03;4899458;28;20495;-64
2021/12/12 08:41:33;;;;;;;4.50;3.42;;;;;;;4.37;82.59;100543.94;4916480;29;20036;-63
2021/12/12 08:43:59;;;;;;;4.40;3.20;;;;;;;4.39;82.22;100533.78;4899866;28;20036;-63
2021/12/12 08:46:31;;;;;;;4.07;3.08;;;;;;;4.38;81.88;100537.13;4916485;29;20179;-63
2021/12/12 08:48:59;;;;;;;3.95;2.60;;;;;;;4.38;82.52;100542.28;4915587;29;20037;-63
2021/12/12 08:51:31;;;;;;;8.63;3.70;;;;;;;4.39;82.27;100539.75;4899423;28;20036;-64
2021/12/12 08:54:23;;;;;;;3.80;3.17;;;;;;;4.39;82.61;100539.75;4899335;28;20079;-63
2021/12/12 08:56:54;;;;;;;4.47;3.28;;;;;;;4.41;81.93;100548.44;4899655;28;20400;-63
2021/12/12 08:59:27;;;;;;;11.23;4.15;;;;;;;4.41;82.91;100545.00;4915269;29;20047;-63
2021/12/12 09:01:59;;;;;;;8.50;3.55;;;;;;;4.41;82.33;100557.81;4915573;29;20047;-63
2021/12/12 09:04:31;;;;;;;6.80;3.28;;;;;;;4.42;82.18;100549.31;4915177;29;20504;-63
2021/12/12 09:07:14;;;;;;;3.45;2.75;;;;;;;4.41;81.84;100548.44;4914622;28;20040;-62
2021/12/12 09:09:46;;;;;;;3.47;3.17;;;;;;;4.42;82.11;100549.31;4916280;29;20040;-62
2021/12/12 09:12:20;;;;;;;4.45;3.97;;;;;;;4.43;82.06;100548.53;4899166;28;20528;-63
2021/12/12 09:14:54;;;;;;;4.93;3.17;;;;;;;4.44;81.89;100552.81;4915053;29;20044;-63
2021/12/12 09:17:28;;;;;;;6.03;2.95;;;;;;;4.46;82.23;100564.03;4899314;28;20040;-62
2021/12/12 09:20:14;;;;;;;6.50;4.35;;;;;;;4.45;81.59;100561.41;4916318;29;20063;-63
2021/12/12 09:22:54;;;;;;;4.18;2.95;;;;;;;4.46;82.54;100564.03;4915920;29;20115;-62
2021/12/12 09:25:38;;;;;;;4.10;2.70;;;;;;;4.47;82.10;100570.06;4898822;28;20047;-63
2021/12/12 09:28:15;;;;;;;5.78;3.30;;;;;;;4.48;82.58;100571.84;4914659;29;20036;-62
2021/12/12 09:30:42;;;;;;;4.55;3.28;;;;;;;4.47;81.94;100576.06;4899022;28;20135;-63
2021/12/12 09:33:51;;;;;;;8.23;3.92;;;;;;;4.49;82.66;100571.91;4898909;28;20055;-63
2021/12/12 09:36:35;;;;;;;6.18;3.25;;;;;;;4.50;82.56;100583.94;4875620;29;20056;-63
2021/12/12 09:39:12;;;;;;;4.78;3.30;;;;;;;4.50;82.33;100583.94;4876251;29;20132;-62
2021/12/12 09:41:56;;;;;;;5.47;3.95;;;;;;;4.50;82.19;100583.94;4886939;29;20056;-63
2021/12/12 09:44:30;;;;;;;4.60;3.45;;;;;;;4.50;82.62;100589.06;4914804;29;20039;-63
2021/12/12 09:47:35;;;;;;;4.38;3.05;;;;;;;4.51;82.51;100585.69;4915695;29;20040;-63
2021/12/12 09:53:21;;;;;;;4.88;3.13;;;;;;;4.50;83.10;100583.94;4915415;29;20526;-63
2021/12/12 09:55:48;;;;;;;7.28;3.80;;;;;;;4.51;82.21;100590.84;4914360;29;20036;-62
2021/12/12 09:58:33;;;;;;;7.53;3.75;;;;;;;4.52;82.20;100586.56;4898304;28;20040;-63
2021/12/12 10:01:21;;;;;;;9.30;4.35;;;;;;;4.53;82.33;100599.50;4899191;28;20056;-62
2021/12/12 10:04:25;;;;;;;5.80;3.90;;;;;;;4.53;82.47;100590.91;4898227;28;20052;-63
2021/12/12 10:07:34;;;;;;;10.00;3.95;;;;;;;4.53;82.65;100585.75;4914672;28;20063;-63
2021/12/12 10:10:10;;;;;;;4.80;3.63;;;;;;;4.53;82.29;100594.38;4898718;28;20055;-63
2021/12/12 10:12:54;;;;;;;5.80;3.53;;;;;;;4.54;82.26;100593.56;4897619;28;20078;-62
2021/12/12 10:15:28;;;;;;;6.25;3.83;;;;;;;4.53;82.11;100585.75;4898212;28;20044;-63
2021/12/12 10:18:12;;;;;;;9.63;4.13;;;;;;;4.55;82.03;100586.72;4915460;29;20036;-63
2021/12/12 10:21:04;;;;;;;6.00;3.38;;;;;;;4.56;82.51;100586.81;4915246;29;20040;-63
2021/12/12 10:24:25;;;;;;;8.73;3.88;;;;;;;4.59;82.37;100587.78;4897919;28;20044;-63
2021/12/12 10:27:17;;;;;;;6.45;3.53;;;;;;;4.61;82.61;100586.13;4875226;29;20468;-63
2021/12/12 10:30:23;;;;;;;4.40;3.00;;;;;;;4.60;82.37;100575.00;4914074;29;20159;-62
2021/12/12 10:33:12;;;;;;;8.48;3.63;;;;;;;4.61;83.04;100575.88;4898458;28;20060;-62
2021/12/12 10:35:37;;;;;;;5.50;3.28;;;;;;;4.61;82.55;100573.31;4897999;28;20095;-62
2021/12/12 10:38:10;;;;;;;4.00;3.63;;;;;;;4.60;82.58;100569.88;4914717;29;20491;-62
2021/12/12 10:40:45;;;;;;;5.18;4.10;;;;;;;4.60;82.61;100562.16;4898328;28;20414;-62
2021/12/12 10:43:22;;;;;;;5.93;4.38;;;;;;;4.62;82.13;100569.94;4914386;29;20048;-62
2021/12/12 10:45:54;;;;;;;6.05;4.22;;;;;;;4.63;82.71;100574.25;4897616;28;20040;-62
2021/12/12 10:48:32;;;;;;;6.18;3.97;;;;;;;4.63;82.37;100579.41;4897868;28;20083;-63
2021/12/12 10:51:03;;;;;;;5.32;4.32;;;;;;;4.64;82.28;100576.91;4913388;29;20055;-63
2021/12/12 10:53:55;;;;;;;5.20;4.05;;;;;;;4.66;82.62;100567.59;4913631;29;20032;-63
2021/12/12 10:56:33;;;;;;;5.22;3.83;;;;;;;4.66;82.05;100576.97;4912761;28;20531;-63
2021/12/12 10:59:03;;;;;;;12.30;4.72;;;;;;;4.66;81.99;100580.44;4913401;29;20040;-63
2021/12/12 11:03:34;;;;;;;5.35;4.10;;;;;;;4.68;82.25;100572.81;5132082;27;20730;-63
2021/12/12 11:06:15;;;;;;;9.32;4.90;;;;;;;4.70;82.82;100573.75;5131956;28;20043;-63
2021/12/12 11:08:50;;;;;;;7.25;4.85;;;;;;;4.71;82.10;100572.97;5131971;28;20444;-63
2021/12/12 11:11:20;;;;;;;8.82;5.45;;;;;;;4.71;82.32;100576.41;5096869;28;20047;-64
2021/12/12 11:14:01;;;;;;;8.15;4.82;;;;;;;4.72;82.54;100578.16;5131906;28;20500;-64
2021/12/12 11:16:36;;;;;;;8.35;5.10;;;;;;;4.74;82.63;100580.81;5097014;28;20067;-64
2021/12/12 11:19:18;;;;;;;9.20;5.53;;;;;;;4.75;82.52;100573.97;5113697;28;20041;-63
2021/12/12 11:21:52;;;;;;;9.65;6.25;;;;;;;4.76;82.49;100575.75;5096411;28;20036;-64
2021/12/12 11:24:29;;;;;;;7.93;5.05;;;;;;;4.76;82.78;100579.19;5113478;28;20047;-64
2021/12/12 11:27:19;;;;;;;9.10;4.75;;;;;;;4.76;82.39;100570.59;5131332;28;20088;-63
2021/12/12 11:29:52;;;;;;;10.48;5.63;;;;;;;4.77;82.45;100574.94;5131503;28;20033;-63
2021/12/12 11:32:23;;;;;;;8.93;5.07;;;;;;;4.78;82.85;100581.84;5113231;28;20036;-62
2021/12/12 11:34:54;;;;;;;6.88;4.90;;;;;;;4.79;82.60;100586.16;5096240;28;20046;-63
2021/12/12 11:37:32;;;;;;;6.80;5.05;;;;;;;4.81;82.52;100576.84;5095964;28;20130;-64
2021/12/12 11:40:02;;;;;;;9.05;6.40;;;;;;;4.81;83.29;100587.13;5096233;28;20028;-63
2021/12/12 11:42:53;;;;;;;7.65;5.45;;;;;;;4.83;82.99;100588.06;5113073;28;20167;-62
2021/12/12 11:45:22;;;;;;;9.50;5.13;;;;;;;4.84;82.05;100585.56;5095708;28;20522;-62
2021/12/12 11:48:12;;;;;;;8.70;5.47;;;;;;;4.84;82.59;100579.53;5131065;28;20039;-63
2021/12/12 11:50:46;;;;;;;7.65;5.43;;;;;;;4.86;82.66;100593.34;5112752;28;20122;-62
2021/12/12 11:53:30;;;;;;;7.00;5.38;;;;;;;4.87;82.38;100585.72;5096543;28;20130;-63
2021/12/12 11:56:06;;;;;;;6.82;5.75;;;;;;;4.87;82.53;100588.28;5112964;28;20559;-62
2021/12/12 11:58:39;;;;;;;6.82;5.53;;;;;;;4.90;83.00;100584.13;5096030;28;20031;-64
2021/12/12 12:01:08;;;;;;;7.43;5.38;;;;;;;4.90;83.04;100584.13;5112167;28;20479;-63
2021/12/12 12:04:03;;;;;;;8.63;5.30;;;;;;;4.91;82.92;100589.31;5095960;28;20394;-62
2021/12/12 12:06:49;;;;;;;7.22;4.43;;;;;;;4.91;82.63;100583.28;5131021;28;20050;-63
2021/12/12 12:09:28;;;;;;;6.03;5.07;;;;;;;4.93;82.50;100589.38;5130558;28;20106;-63
2021/12/12 12:11:55;;;;;;;6.95;4.85;;;;;;;4.93;83.22;100585.13;5112429;28;20082;-63
2021/12/12 12:14:46;;;;;;;8.48;5.43;;;;;;;4.93;82.33;100585.13;5119633;28;20031;-63
2021/12/12 12:17:42;;;;;;;6.28;5.45;;;;;;;4.96;83.40;100582.72;5070380;28;20054;-62
2021/12/12 12:20:27;;;;;;;6.22;5.07;;;;;;;4.96;83.02;100587.84;5115646;28;20406;-63